createdAt,value
2024-02-18T00:01:07.304Z,15.12
2024-02-18T00:03:34.041Z,15.21
2024-02-18T00:06:00.773Z,15.11
2024-02-18T00:08:27.262Z,15.18
2024-02-18T00:10:53.863Z,15.09
2024-02-18T00:13:20.454Z,15.31
2024-02-18T00:15:46.996Z,15.36
2024-02-18T00:18:13.495Z,15.19
2024-02-18T00:20:39.980Z,15.01
2024-02-18T00:23:06.447Z,15.07
2024-02-18T00:25:32.888Z,15.12
2024-02-18T00:27:59.579Z,15.08
2024-02-18T00:30:26.213Z,15.05
2024-02-18T00:32:52.793Z,15.09
2024-02-18T00:35:19.378Z,14.95
2024-02-18T00:37:45.860Z,14.73
2024-02-18T00:40:12.405Z,14.83
2024-02-18T00:42:39.017Z,15.03
2024-02-18T00:45:05.516Z,14.90
2024-02-18T00:47:32.009Z,14.45
2024-02-18T00:49:58.451Z,14.62
2024-02-18T00:52:24.901Z,14.91
2024-02-18T00:54:51.392Z,15.14
2024-02-18T00:57:17.948Z,15.10
2024-02-18T00:59:44.439Z,14.97
2024-02-18T01:02:11.017Z,14.98
2024-02-18T01:04:37.621Z,15.00
2024-02-18T01:07:04.195Z,15.02
2024-02-18T01:09:30.782Z,14.98
2024-02-18T01:11:57.297Z,14.96
2024-02-18T01:14:23.804Z,14.92
2024-02-18T01:16:50.313Z,14.89
2024-02-18T01:19:17.096Z,14.90
2024-02-18T01:21:43.647Z,14.96
2024-02-18T01:24:10.365Z,15.04
2024-02-18T01:26:36.821Z,14.99
2024-02-18T01:29:03.322Z,14.96
2024-02-18T01:31:29.766Z,14.85
2024-02-18T01:33:56.328Z,14.91
2024-02-18T01:36:22.839Z,14.98
2024-02-18T01:38:49.307Z,15.10
2024-02-18T01:41:15.790Z,14.90
2024-02-18T01:43:42.237Z,14.88
2024-02-18T01:46:08.748Z,14.91
2024-02-18T01:48:35.302Z,14.68
2024-02-18T01:51:01.851Z,14.79
2024-02-18T01:53:28.344Z,14.81
2024-02-18T01:55:54.787Z,14.54
2024-02-18T01:58:21.232Z,14.62
2024-02-18T02:00:47.756Z,14.78
2024-02-18T02:03:14.319Z,14.73
2024-02-18T02:05:41.104Z,14.86
2024-02-18T02:08:07.725Z,14.93
2024-02-18T02:10:34.243Z,14.96
2024-02-18T02:13:00.889Z,14.86
2024-02-18T02:15:27.446Z,14.87
2024-02-18T02:17:53.965Z,14.90
2024-02-18T02:20:20.457Z,15.02
2024-02-18T02:22:46.883Z,14.97
2024-02-18T02:25:13.379Z,15.05
2024-02-18T02:27:40.022Z,15.05
2024-02-18T02:30:06.495Z,15.02
2024-02-18T02:32:33.037Z,15.03
2024-02-18T02:34:59.654Z,15.17
2024-02-18T02:37:26.119Z,15.08
2024-02-18T02:39:52.696Z,14.92
2024-02-18T02:42:19.305Z,14.90
2024-02-18T02:44:45.894Z,14.80
2024-02-18T02:47:12.341Z,14.83
2024-02-18T02:49:38.958Z,14.93
2024-02-18T02:52:05.565Z,15.00
2024-02-18T02:54:32.079Z,14.71
2024-02-18T02:56:58.531Z,14.68
2024-02-18T02:59:24.969Z,14.78
2024-02-18T03:01:51.477Z,14.82
2024-02-18T03:04:18.001Z,14.77
2024-02-18T03:06:44.581Z,14.70
2024-02-18T03:09:11.096Z,14.81
2024-02-18T03:11:37.651Z,14.69
2024-02-18T03:14:04.105Z,14.78
2024-02-18T03:16:30.560Z,14.69
2024-02-18T03:18:57.170Z,14.79
2024-02-18T03:21:23.733Z,14.61
2024-02-18T03:23:50.273Z,14.61
2024-02-18T03:26:16.775Z,14.41
2024-02-18T03:28:43.247Z,14.61
2024-02-18T03:31:09.754Z,14.66
2024-02-18T03:33:36.331Z,14.33
2024-02-18T03:36:02.846Z,14.60
2024-02-18T03:38:29.340Z,14.66
2024-02-18T03:40:55.951Z,14.67
2024-02-18T03:43:22.404Z,14.87
2024-02-18T03:45:48.929Z,14.90
2024-02-18T03:48:15.517Z,14.83
2024-02-18T03:50:42.000Z,14.77
2024-02-18T03:53:08.433Z,14.69
2024-02-18T03:55:34.904Z,14.83
2024-02-18T03:58:01.431Z,14.75
2024-02-18T04:00:27.952Z,14.78
2024-02-18T04:02:54.449Z,14.67
2024-02-18T04:05:21.333Z,14.52
2024-02-18T04:07:47.797Z,14.62
2024-02-18T04:10:15.585Z,14.66
2024-02-18T04:12:42.728Z,14.27
2024-02-18T04:15:09.220Z,14.17
2024-02-18T04:17:35.766Z,14.51
2024-02-18T04:20:02.340Z,14.40
2024-02-18T04:22:28.872Z,14.08
2024-02-18T04:24:55.467Z,14.09
2024-02-18T04:27:21.985Z,14.28
2024-02-18T04:29:48.443Z,14.57
2024-02-18T04:32:14.994Z,14.52
2024-02-18T04:34:41.562Z,14.41
2024-02-18T04:37:08.167Z,14.50
2024-02-18T04:39:34.662Z,14.53
2024-02-18T04:42:01.187Z,14.56
2024-02-18T04:44:27.637Z,14.63
2024-02-18T04:46:54.092Z,14.42
2024-02-18T04:49:20.756Z,14.56
2024-02-18T04:51:47.265Z,14.63
2024-02-18T04:54:13.759Z,14.53
2024-02-18T04:56:40.201Z,14.45
2024-02-18T04:59:06.630Z,14.58
2024-02-18T05:01:33.256Z,14.33
2024-02-18T05:03:59.872Z,14.32
2024-02-18T05:06:26.340Z,14.33
2024-02-18T05:08:52.872Z,14.59
2024-02-18T05:11:19.384Z,14.64
2024-02-18T05:13:45.838Z,14.67
2024-02-18T05:16:12.363Z,14.70
2024-02-18T05:18:38.979Z,14.64
2024-02-18T05:21:05.571Z,14.68
2024-02-18T05:23:32.119Z,14.54
2024-02-18T05:25:58.584Z,14.36
2024-02-18T05:28:25.069Z,14.26
2024-02-18T05:30:51.607Z,14.56
2024-02-18T05:33:18.309Z,14.58
2024-02-18T05:35:44.828Z,14.59
2024-02-18T05:38:11.458Z,14.68
2024-02-18T05:40:38.015Z,14.60
2024-02-18T05:43:04.502Z,14.66
2024-02-18T05:45:30.995Z,14.72
2024-02-18T05:47:57.621Z,14.87
2024-02-18T05:50:24.184Z,14.83
2024-02-18T05:52:50.727Z,14.85
2024-02-18T05:55:17.321Z,14.93
2024-02-18T05:57:43.858Z,14.95
2024-02-18T06:00:10.336Z,14.94
2024-02-18T06:02:36.849Z,14.78
2024-02-18T06:05:03.438Z,14.77
2024-02-18T06:07:30.156Z,14.78
2024-02-18T06:09:56.792Z,14.73
2024-02-18T06:12:23.414Z,14.71
2024-02-18T06:14:49.876Z,14.72
2024-02-18T06:17:16.381Z,14.84
2024-02-18T06:19:42.953Z,14.92
2024-02-18T06:22:09.596Z,14.85
2024-02-18T06:24:36.102Z,14.86
2024-02-18T06:27:02.627Z,14.81
2024-02-18T06:29:29.189Z,14.89
2024-02-18T06:31:55.709Z,14.76
2024-02-18T06:34:22.500Z,14.51
2024-02-18T06:36:49.039Z,14.69
2024-02-18T06:39:15.541Z,14.82
2024-02-18T06:41:42.055Z,14.81
2024-02-18T06:44:08.635Z,14.88
2024-02-18T06:46:35.095Z,14.86
2024-02-18T06:49:01.651Z,14.80
2024-02-18T06:51:28.191Z,14.67
2024-02-18T06:53:54.692Z,14.70
2024-02-18T06:56:21.217Z,14.66
2024-02-18T06:58:47.869Z,14.38
2024-02-18T07:01:14.488Z,14.32
2024-02-18T07:03:41.142Z,14.37
2024-02-18T07:06:07.666Z,14.56
2024-02-18T07:08:34.149Z,14.71
2024-02-18T07:11:00.700Z,14.52
2024-02-18T07:13:27.162Z,14.47
2024-02-18T07:15:53.627Z,14.39
2024-02-18T07:18:20.155Z,14.26
2024-02-18T07:20:46.721Z,14.21
2024-02-18T07:23:13.460Z,14.41
2024-02-18T07:25:39.924Z,14.62
2024-02-18T07:28:06.441Z,14.26
2024-02-18T07:30:32.953Z,14.34
2024-02-18T07:32:59.487Z,14.43
2024-02-18T07:35:26.025Z,14.82
2024-02-18T07:37:52.495Z,14.44
2024-02-18T07:40:19.013Z,14.28
2024-02-18T07:42:45.512Z,14.62
2024-02-18T07:45:12.044Z,14.43
2024-02-18T07:47:38.572Z,14.47
2024-02-18T07:50:05.083Z,14.46
2024-02-18T07:52:31.572Z,14.50
2024-02-18T07:54:58.096Z,14.69
2024-02-18T07:57:24.625Z,14.88
2024-02-18T07:59:51.104Z,14.77
2024-02-18T08:02:17.543Z,14.90
2024-02-18T08:04:44.142Z,14.89
2024-02-18T08:07:10.779Z,14.95
2024-02-18T08:09:37.286Z,14.79
2024-02-18T08:12:03.751Z,14.45
2024-02-18T08:14:30.249Z,14.35
2024-02-18T08:16:56.736Z,14.20
2024-02-18T08:19:23.288Z,14.31
2024-02-18T08:21:49.885Z,14.63
2024-02-18T08:24:16.399Z,14.88
2024-02-18T08:26:42.922Z,15.00
2024-02-18T08:29:09.374Z,14.89
2024-02-18T08:31:36.007Z,15.22
2024-02-18T08:34:02.574Z,15.20
2024-02-18T08:36:29.271Z,15.26
2024-02-18T08:38:55.769Z,14.74
2024-02-18T08:41:22.218Z,15.02
2024-02-18T08:43:48.736Z,14.58
2024-02-18T08:46:15.364Z,15.10
2024-02-18T08:48:42.065Z,15.43
2024-02-18T08:51:08.541Z,15.46
2024-02-18T08:53:35.301Z,15.80
2024-02-18T08:56:01.766Z,15.58
2024-02-18T08:58:28.226Z,15.82
2024-02-18T09:00:54.771Z,15.77
2024-02-18T09:03:21.345Z,15.95
2024-02-18T09:05:47.813Z,15.78
2024-02-18T09:08:14.301Z,15.34
2024-02-18T09:10:40.744Z,15.34
2024-02-18T09:13:07.337Z,15.36
2024-02-18T09:15:33.943Z,15.96
2024-02-18T09:18:00.800Z,15.86
2024-02-18T09:20:27.397Z,16.37
2024-02-18T09:22:53.966Z,16.15
2024-02-18T09:25:20.505Z,16.06
2024-02-18T09:27:47.106Z,16.00
2024-02-18T09:30:13.728Z,15.99
2024-02-18T09:32:40.319Z,15.88
2024-02-18T09:35:07.140Z,16.04
2024-02-18T09:37:33.713Z,16.35
2024-02-18T09:40:00.317Z,16.65
2024-02-18T09:42:26.813Z,16.41
2024-02-18T09:44:53.332Z,16.47
2024-02-18T09:47:19.795Z,15.77
2024-02-18T09:49:46.398Z,15.65
2024-02-18T09:52:12.956Z,15.73
2024-02-18T09:54:39.550Z,15.73
2024-02-18T09:57:06.050Z,15.86
2024-02-18T09:59:32.594Z,15.74
2024-02-18T10:01:59.386Z,15.89
2024-02-18T10:04:25.985Z,15.98
2024-02-18T10:06:52.565Z,16.00
2024-02-18T10:09:19.131Z,15.98
2024-02-18T10:11:45.575Z,15.90
2024-02-18T10:14:12.038Z,16.00
2024-02-18T10:16:38.469Z,16.13
2024-02-18T10:19:05.037Z,16.48
2024-02-18T10:21:31.589Z,16.31
2024-02-18T10:23:58.103Z,16.47
2024-02-18T10:26:24.658Z,16.83
2024-02-18T10:28:51.172Z,16.95
2024-02-18T10:31:17.845Z,17.19
2024-02-18T10:33:44.478Z,16.93
2024-02-18T10:36:11.394Z,17.04
2024-02-18T10:38:37.956Z,17.35
2024-02-18T10:41:04.465Z,17.53
2024-02-18T10:43:31.002Z,16.95
2024-02-18T10:45:57.510Z,16.79
2024-02-18T10:48:24.079Z,16.68
2024-02-18T10:50:50.621Z,16.51
2024-02-18T10:53:17.121Z,16.91
2024-02-18T10:55:43.558Z,16.97
2024-02-18T10:58:10.030Z,17.29
2024-02-18T11:00:36.554Z,17.51
2024-02-18T11:03:03.212Z,17.14
2024-02-18T11:05:29.829Z,16.82
2024-02-18T11:07:56.388Z,17.25
2024-02-18T11:10:22.925Z,17.60
2024-02-18T11:12:51.828Z,17.23
2024-02-18T11:15:18.462Z,16.96
2024-02-18T11:17:44.897Z,17.25
2024-02-18T11:20:11.357Z,17.03
2024-02-18T11:22:37.891Z,17.15
2024-02-18T11:25:04.524Z,17.49
2024-02-18T11:27:32.426Z,17.66
2024-02-18T11:29:58.867Z,18.11
2024-02-18T11:32:25.291Z,18.02
2024-02-18T11:34:51.975Z,17.61
2024-02-18T11:37:18.512Z,17.65
2024-02-18T11:39:45.011Z,17.75
2024-02-18T11:42:11.460Z,17.66
2024-02-18T11:44:37.924Z,17.45
2024-02-18T11:47:04.430Z,17.30
2024-02-18T11:49:30.952Z,17.32
2024-02-18T11:51:57.484Z,17.57
2024-02-18T11:54:24.229Z,17.37
2024-02-18T11:56:50.768Z,17.32
2024-02-18T11:59:17.262Z,17.24
2024-02-18T12:01:43.863Z,16.96
2024-02-18T12:04:10.631Z,17.15
2024-02-18T12:06:37.238Z,17.39
2024-02-18T12:09:03.691Z,17.80
2024-02-18T12:11:30.167Z,18.17
2024-02-18T12:13:56.697Z,17.95
2024-02-18T12:16:23.319Z,17.67
2024-02-18T12:18:49.854Z,17.57
2024-02-18T12:21:16.464Z,17.80
2024-02-18T12:23:42.914Z,17.86
2024-02-18T12:26:09.349Z,17.94
2024-02-18T12:28:35.828Z,18.16
2024-02-18T12:31:02.323Z,18.04
2024-02-18T12:33:28.959Z,17.95
2024-02-18T12:35:55.490Z,17.71
2024-02-18T12:38:22.020Z,17.99
2024-02-18T12:40:48.513Z,17.77
2024-02-18T12:43:40.893Z,17.62
2024-02-18T12:46:06.052Z,17.66
2024-02-18T12:48:35.520Z,17.76
2024-02-18T12:51:02.144Z,17.55
2024-02-18T12:53:28.721Z,17.84
2024-02-18T12:55:55.222Z,18.14
2024-02-18T12:58:21.662Z,18.30
2024-02-18T13:00:48.291Z,17.78
2024-02-18T13:03:14.873Z,17.61
2024-02-18T13:05:41.526Z,17.69
2024-02-18T13:08:08.041Z,17.53
2024-02-18T13:10:34.497Z,17.86
2024-02-18T13:13:01.199Z,17.81
2024-02-18T13:15:27.772Z,17.50
2024-02-18T13:17:54.293Z,17.94
2024-02-18T13:20:20.842Z,18.18
2024-02-18T13:22:47.318Z,18.29
2024-02-18T13:25:13.969Z,17.89
2024-02-18T13:27:40.641Z,17.77
2024-02-18T13:30:07.150Z,17.51
2024-02-18T13:32:33.692Z,17.63
2024-02-18T13:35:00.330Z,17.30
2024-02-18T13:37:26.864Z,17.54
2024-02-18T13:39:53.508Z,17.73
2024-02-18T13:42:22.075Z,17.51
2024-02-18T13:44:48.834Z,17.59
2024-02-18T13:47:15.378Z,18.21
2024-02-18T13:49:41.994Z,17.80
2024-02-18T13:52:08.597Z,17.86
2024-02-18T13:54:35.149Z,18.01
2024-02-18T13:57:01.653Z,18.25
2024-02-18T13:59:28.141Z,18.29
2024-02-18T14:01:54.696Z,18.37
2024-02-18T14:04:21.229Z,18.51
2024-02-18T14:06:47.713Z,18.21
2024-02-18T14:09:14.419Z,18.31
2024-02-18T14:11:40.912Z,18.09
2024-02-18T14:14:07.472Z,18.27
2024-02-18T14:16:33.983Z,18.24
2024-02-18T14:19:00.760Z,17.75
2024-02-18T14:21:27.324Z,18.03
2024-02-18T14:23:53.769Z,17.44
2024-02-18T14:26:20.256Z,17.35
2024-02-18T14:28:46.756Z,17.86
2024-02-18T14:31:13.284Z,17.87
2024-02-18T14:33:39.951Z,18.23
2024-02-18T14:36:06.636Z,18.02
2024-02-18T14:38:33.057Z,17.69
2024-02-18T14:40:59.519Z,17.55
2024-02-18T14:43:25.998Z,17.98
2024-02-18T14:45:52.476Z,17.71
2024-02-18T14:48:19.004Z,17.73
2024-02-18T14:50:45.519Z,17.88
2024-02-18T14:53:11.994Z,17.44
2024-02-18T14:55:38.449Z,17.68
2024-02-18T14:58:05.015Z,18.12
2024-02-18T15:00:31.569Z,17.88
2024-02-18T15:02:58.101Z,18.42
2024-02-18T15:05:24.668Z,18.26
2024-02-18T15:07:51.207Z,18.66
2024-02-18T15:10:17.829Z,18.61
2024-02-18T15:12:44.351Z,18.38
2024-02-18T15:15:10.925Z,17.95
2024-02-18T15:17:37.408Z,17.74
2024-02-18T15:20:03.888Z,17.44
2024-02-18T15:22:30.365Z,17.43
2024-02-18T15:24:56.896Z,17.71
2024-02-18T15:27:23.429Z,17.39
2024-02-18T15:29:49.980Z,17.49
2024-02-18T15:32:16.512Z,17.95
2024-02-18T15:34:43.096Z,17.88
2024-02-18T15:37:09.743Z,17.81
2024-02-18T15:39:36.347Z,17.79
2024-02-18T15:42:02.820Z,17.73
2024-02-18T15:44:29.316Z,17.90
2024-02-18T15:46:55.760Z,17.79
2024-02-18T15:49:22.342Z,17.99
2024-02-18T15:51:48.938Z,17.40
2024-02-18T15:54:15.410Z,17.62
2024-02-18T15:56:41.922Z,17.79
2024-02-18T15:59:09.486Z,17.70
2024-02-18T16:01:36.183Z,17.79
2024-02-18T16:04:02.790Z,17.39
2024-02-18T16:06:29.370Z,16.77
2024-02-18T16:08:55.942Z,17.09
2024-02-18T16:11:23.970Z,17.05
2024-02-18T16:13:52.271Z,16.69
2024-02-18T16:16:19.067Z,15.89
2024-02-18T16:18:45.812Z,16.68
2024-02-18T16:21:12.393Z,16.99
2024-02-18T16:23:38.854Z,16.99
2024-02-18T16:26:05.294Z,16.89
2024-02-18T16:28:31.775Z,16.83
2024-02-18T16:30:58.420Z,16.99
2024-02-18T16:33:24.914Z,16.65
2024-02-18T16:35:51.363Z,16.45
2024-02-18T16:38:17.816Z,16.62
2024-02-18T16:40:44.309Z,16.67
2024-02-18T16:43:10.876Z,16.80
2024-02-18T16:45:37.356Z,16.32
2024-02-18T16:48:03.921Z,16.26
2024-02-18T16:50:30.420Z,16.54
2024-02-18T16:52:56.868Z,16.15
2024-02-18T16:55:23.378Z,16.12
2024-02-18T16:57:49.885Z,16.43
2024-02-18T17:00:16.418Z,16.51
2024-02-18T17:02:45.657Z,16.40
2024-02-18T17:05:12.765Z,16.14
2024-02-18T17:07:39.272Z,16.04
2024-02-18T17:10:05.757Z,16.06
2024-02-18T17:12:32.235Z,15.83
2024-02-18T17:14:58.759Z,16.06
2024-02-18T17:17:25.303Z,15.83
2024-02-18T17:19:52.186Z,15.96
2024-02-18T17:22:19.031Z,15.86
2024-02-18T17:24:45.551Z,15.75
2024-02-18T17:27:12.155Z,15.60
2024-02-18T17:29:38.705Z,15.59
2024-02-18T17:32:05.170Z,15.51
2024-02-18T17:34:31.752Z,15.72
2024-02-18T17:36:58.430Z,15.41
2024-02-18T17:39:27.730Z,15.30
2024-02-18T17:41:54.249Z,15.30
2024-02-18T17:44:20.887Z,15.37
2024-02-18T17:46:47.358Z,15.19
2024-02-18T17:49:14.043Z,15.25
2024-02-18T17:51:40.643Z,15.23
2024-02-18T17:54:07.124Z,15.11
2024-02-18T17:56:34.966Z,15.17
2024-02-18T17:59:01.673Z,15.16
2024-02-18T18:01:28.333Z,15.09
2024-02-18T18:03:55.045Z,15.25
2024-02-18T18:06:21.541Z,15.33
2024-02-18T18:08:48.002Z,14.93
2024-02-18T18:11:14.556Z,15.03
2024-02-18T18:13:41.083Z,14.62
2024-02-18T18:16:07.608Z,14.80
2024-02-18T18:18:34.125Z,14.69
2024-02-18T18:21:00.584Z,14.70
2024-02-18T18:23:27.044Z,14.87
2024-02-18T18:25:53.577Z,14.84
2024-02-18T18:28:20.085Z,14.78
2024-02-18T18:30:48.864Z,14.60
2024-02-18T18:33:15.640Z,14.75
2024-02-18T18:35:42.168Z,14.83
2024-02-18T18:38:08.634Z,14.26
2024-02-18T18:40:35.127Z,14.76
2024-02-18T18:43:01.882Z,14.77
2024-02-18T18:45:28.315Z,14.55
2024-02-18T18:47:54.801Z,14.75
2024-02-18T18:50:21.384Z,14.51
2024-02-18T18:52:47.894Z,14.36
2024-02-18T18:55:14.518Z,14.42
2024-02-18T18:57:41.132Z,14.30
2024-02-18T19:00:07.671Z,14.47
2024-02-18T19:02:34.157Z,14.67
2024-02-18T19:05:01.021Z,14.30
2024-02-18T19:07:27.615Z,14.59
2024-02-18T19:09:54.138Z,14.52
2024-02-18T19:12:20.618Z,14.22
2024-02-18T19:14:50.517Z,14.22
2024-02-18T19:17:17.453Z,14.23
2024-02-18T19:19:44.210Z,14.08
2024-02-18T19:22:10.725Z,14.07
2024-02-18T19:24:37.339Z,14.37
2024-02-18T19:27:06.156Z,14.42
2024-02-18T19:29:32.661Z,14.43
2024-02-18T19:31:59.165Z,14.78
2024-02-18T19:34:25.770Z,14.78
2024-02-18T19:36:52.350Z,14.78
2024-02-18T19:39:18.953Z,14.84
2024-02-18T19:41:45.493Z,15.08
2024-02-18T19:44:12.126Z,15.34
2024-02-18T19:46:38.718Z,15.21
2024-02-18T19:49:05.292Z,14.86
2024-02-18T19:51:31.929Z,15.00
2024-02-18T19:53:58.458Z,15.08
2024-02-18T19:56:24.959Z,15.04
2024-02-18T19:58:51.540Z,15.36
2024-02-18T20:01:18.089Z,15.40
2024-02-18T20:03:46.620Z,15.30
2024-02-18T20:06:13.355Z,14.57
2024-02-18T20:08:39.879Z,14.59
2024-02-18T20:11:06.380Z,14.45
2024-02-18T20:13:32.866Z,14.60
2024-02-18T20:15:59.519Z,14.69
2024-02-18T20:18:28.347Z,14.67
2024-02-18T20:20:55.181Z,14.34
2024-02-18T20:23:21.680Z,14.22
2024-02-18T20:25:48.258Z,14.17
2024-02-18T20:28:14.823Z,13.81
2024-02-18T20:30:41.408Z,13.49
2024-02-18T20:33:08.050Z,13.61
2024-02-18T20:35:34.721Z,13.60
2024-02-18T20:38:03.885Z,13.84
2024-02-18T20:40:30.419Z,13.64
2024-02-18T20:42:56.940Z,13.52
2024-02-18T20:45:23.566Z,13.43
2024-02-18T20:47:50.059Z,13.41
2024-02-18T20:50:18.901Z,13.29
2024-02-18T20:52:45.352Z,13.36
2024-02-18T20:55:12.326Z,13.25
2024-02-18T20:57:38.788Z,13.26
2024-02-18T21:00:05.375Z,13.03
2024-02-18T21:02:32.002Z,13.39
2024-02-18T21:04:58.488Z,13.70
2024-02-18T21:07:25.018Z,13.55
2024-02-18T21:09:51.555Z,13.90
2024-02-18T21:12:18.034Z,13.29
2024-02-18T21:14:44.589Z,13.19
2024-02-18T21:17:13.361Z,13.14
2024-02-18T21:19:39.976Z,12.76
2024-02-18T21:22:06.793Z,12.54
2024-02-18T21:24:33.348Z,12.81
2024-02-18T21:26:59.903Z,12.88
2024-02-18T21:29:26.360Z,13.04
2024-02-18T21:31:52.833Z,12.81
2024-02-18T21:34:19.476Z,13.23
2024-02-18T21:36:46.176Z,12.73
2024-02-18T21:39:12.853Z,12.89
2024-02-18T21:41:39.322Z,12.85
2024-02-18T21:44:06.064Z,13.00
2024-02-18T21:46:32.540Z,13.45
2024-02-18T21:48:59.111Z,13.47
2024-02-18T21:51:25.769Z,13.56
2024-02-18T21:53:52.421Z,13.68
2024-02-18T21:56:26.239Z,13.79
2024-02-18T21:58:52.686Z,13.79
2024-02-18T22:01:19.254Z,13.52
2024-02-18T22:03:45.812Z,13.66
2024-02-18T22:06:12.353Z,13.69
2024-02-18T22:08:38.949Z,13.70
2024-02-18T22:11:05.575Z,13.30
2024-02-18T22:13:32.384Z,13.38
2024-02-18T22:15:59.067Z,13.36
2024-02-18T22:18:29.502Z,13.13
2024-02-18T22:20:56.049Z,12.96
2024-02-18T22:23:25.476Z,12.92
2024-02-18T22:25:52.018Z,12.88
2024-02-18T22:28:18.521Z,13.28
2024-02-18T22:30:45.090Z,13.38
2024-02-18T22:33:11.677Z,13.26
2024-02-18T22:35:38.188Z,13.05
2024-02-18T22:38:04.671Z,13.10
2024-02-18T22:40:31.122Z,13.24
2024-02-18T22:42:57.618Z,13.13
2024-02-18T22:45:26.638Z,12.88
2024-02-18T22:47:54.492Z,12.85
2024-02-18T22:50:20.954Z,12.74
2024-02-18T22:52:47.402Z,12.90
2024-02-18T22:55:13.956Z,12.70
2024-02-18T22:57:40.582Z,12.61
2024-02-18T23:00:07.137Z,12.82
2024-02-18T23:02:33.653Z,12.65
2024-02-18T23:05:00.152Z,12.80
2024-02-18T23:07:26.771Z,12.67
2024-02-18T23:09:53.379Z,12.81
2024-02-18T23:12:19.890Z,12.77
2024-02-18T23:14:46.336Z,12.82
2024-02-18T23:17:12.802Z,12.86
2024-02-18T23:19:39.334Z,13.02
2024-02-18T23:22:05.914Z,12.75
2024-02-18T23:24:32.477Z,12.50
2024-02-18T23:26:58.945Z,12.47
2024-02-18T23:29:25.578Z,12.72
2024-02-18T23:31:52.036Z,12.59
2024-02-18T23:34:18.758Z,12.82
2024-02-18T23:36:45.456Z,12.61
2024-02-18T23:39:11.928Z,12.66
2024-02-18T23:41:38.381Z,12.74
2024-02-18T23:44:04.821Z,12.89
2024-02-18T23:46:31.319Z,12.63
2024-02-18T23:48:57.856Z,12.72
2024-02-18T23:51:24.460Z,12.67
2024-02-18T23:53:50.988Z,12.83
2024-02-18T23:56:17.436Z,13.12
2024-02-18T23:58:43.910Z,12.93
